createdAt,value
2023-06-18T00:00:06.586Z,74.34
2023-06-18T00:01:06.650Z,74.33
2023-06-18T00:02:06.603Z,74.54
2023-06-18T00:03:06.670Z,74.59
2023-06-18T00:04:06.701Z,73.84
2023-06-18T00:05:06.701Z,73.70
2023-06-18T00:06:06.717Z,74.06
2023-06-18T00:07:06.741Z,73.57
2023-06-18T00:08:06.788Z,74.67
2023-06-18T00:09:06.792Z,74.29
2023-06-18T00:10:06.824Z,73.82
2023-06-18T00:11:06.851Z,74.52
2023-06-18T00:12:06.871Z,75.09
2023-06-18T00:13:06.885Z,74.81
2023-06-18T00:14:06.921Z,74.90
2023-06-18T00:15:06.965Z,74.69
2023-06-18T00:16:07.023Z,75.77
2023-06-18T00:17:07.024Z,75.30
2023-06-18T00:18:07.031Z,74.36
2023-06-18T00:19:07.057Z,75.02
2023-06-18T00:20:07.081Z,74.72
2023-06-18T00:21:07.107Z,74.64
2023-06-18T00:22:07.131Z,73.44
2023-06-18T00:23:07.159Z,75.16
2023-06-18T00:24:07.233Z,73.38
2023-06-18T00:25:07.203Z,75.58
2023-06-18T00:26:07.220Z,74.57
2023-06-18T00:27:07.245Z,75.17
2023-06-18T00:28:07.269Z,74.45
2023-06-18T00:29:07.286Z,74.01
2023-06-18T00:30:07.310Z,74.96
2023-06-18T00:31:07.339Z,75.35
2023-06-18T00:32:07.355Z,74.32
2023-06-18T00:33:07.470Z,74.64
2023-06-18T00:34:07.414Z,74.54
2023-06-18T00:35:07.446Z,74.67
2023-06-18T00:36:07.477Z,74.67
2023-06-18T00:37:07.486Z,73.86
2023-06-18T00:38:07.532Z,73.79
2023-06-18T00:39:07.541Z,74.60
2023-06-18T00:40:07.577Z,73.87
2023-06-18T00:41:07.610Z,73.59
2023-06-18T00:42:07.614Z,72.91
2023-06-18T00:43:07.646Z,74.07
2023-06-18T00:44:07.669Z,73.42
2023-06-18T00:45:07.706Z,73.59
2023-06-18T00:46:07.724Z,74.13
2023-06-18T00:47:07.836Z,74.12
2023-06-18T00:48:07.820Z,74.16
2023-06-18T00:49:07.814Z,73.28
2023-06-18T00:50:07.859Z,74.17
2023-06-18T00:51:07.870Z,74.14
2023-06-18T00:52:07.934Z,72.94
2023-06-18T00:53:07.923Z,72.66
2023-06-18T00:54:07.948Z,73.82
2023-06-18T00:55:08.002Z,73.05
2023-06-18T00:56:07.998Z,73.02
2023-06-18T00:57:08.062Z,72.31
2023-06-18T00:58:08.052Z,72.92
2023-06-18T00:59:08.099Z,71.75
2023-06-18T01:00:08.126Z,71.60
2023-06-18T01:01:08.143Z,72.74
2023-06-18T01:02:08.256Z,73.03
2023-06-18T01:03:08.227Z,71.46
2023-06-18T01:04:08.268Z,73.16
2023-06-18T01:05:08.266Z,72.24
2023-06-18T01:06:08.324Z,73.62
2023-06-18T01:07:08.327Z,71.53
2023-06-18T01:08:08.355Z,73.16
2023-06-18T01:09:08.392Z,71.52
2023-06-18T01:10:08.428Z,72.91
2023-06-18T01:11:08.443Z,72.27
2023-06-18T01:12:08.477Z,71.81
2023-06-18T01:13:08.461Z,71.88
2023-06-18T01:14:08.490Z,71.93
2023-06-18T01:15:08.442Z,72.67
2023-06-18T01:16:08.538Z,72.83
2023-06-18T01:17:08.697Z,72.24
2023-06-18T01:18:08.506Z,73.55
2023-06-18T01:19:08.372Z,73.20
2023-06-18T01:20:08.378Z,71.30
2023-06-18T01:21:08.402Z,73.12
2023-06-18T01:22:08.321Z,73.78
2023-06-18T01:23:08.335Z,71.21
2023-06-18T01:24:08.319Z,71.58
2023-06-18T01:25:08.374Z,72.41
2023-06-18T01:26:08.384Z,71.89
2023-06-18T01:27:08.402Z,72.60
2023-06-18T01:28:08.456Z,70.71
2023-06-18T01:29:08.459Z,70.85
2023-06-18T01:30:08.491Z,72.31
2023-06-18T01:31:08.534Z,71.24
2023-06-18T01:32:08.551Z,71.58
2023-06-18T01:33:08.578Z,71.15
2023-06-18T01:34:08.609Z,70.80
2023-06-18T01:35:08.658Z,70.35
2023-06-18T01:36:08.672Z,71.59
2023-06-18T01:37:08.711Z,70.55
2023-06-18T01:38:08.741Z,70.40
2023-06-18T01:39:08.787Z,68.92
2023-06-18T01:40:08.808Z,70.13
2023-06-18T01:41:08.853Z,70.22
2023-06-18T01:42:08.881Z,70.49
2023-06-18T01:43:08.909Z,70.80
2023-06-18T01:44:08.936Z,69.76
2023-06-18T01:45:08.981Z,71.28
2023-06-18T01:46:09.057Z,68.61
2023-06-18T01:47:09.065Z,69.54
2023-06-18T01:48:09.113Z,69.02
2023-06-18T01:49:09.101Z,70.01
2023-06-18T01:50:09.153Z,68.53
2023-06-18T01:51:09.177Z,69.10
2023-06-18T01:52:09.236Z,69.99
2023-06-18T01:53:09.232Z,68.69
2023-06-18T01:54:09.299Z,68.35
2023-06-18T01:55:09.326Z,68.10
2023-06-18T01:56:09.341Z,67.59
2023-06-18T01:57:09.375Z,67.35
2023-06-18T01:58:09.419Z,67.42
2023-06-18T01:59:09.458Z,67.26
2023-06-18T02:00:09.509Z,68.25
2023-06-18T02:01:09.534Z,68.51
2023-06-18T02:02:09.562Z,68.05
2023-06-18T02:03:09.733Z,68.20
2023-06-18T02:04:09.638Z,68.18
2023-06-18T02:05:09.680Z,66.91
2023-06-18T02:06:09.708Z,66.92
2023-06-18T02:07:09.757Z,67.51
2023-06-18T02:08:09.789Z,66.58
2023-06-18T02:09:09.836Z,65.72
2023-06-18T02:10:09.882Z,66.08
2023-06-18T02:11:09.888Z,64.61
2023-06-18T02:12:09.942Z,65.63
2023-06-18T02:13:09.964Z,65.71
2023-06-18T02:14:09.991Z,66.11
2023-06-18T02:15:10.133Z,65.58
2023-06-18T02:16:10.162Z,64.65
2023-06-18T02:17:10.100Z,65.58
2023-06-18T02:18:10.189Z,65.07
2023-06-18T02:19:10.184Z,65.77
2023-06-18T02:20:10.243Z,64.92
2023-06-18T02:21:10.250Z,64.53
2023-06-18T02:22:10.309Z,64.62
2023-06-18T02:23:10.435Z,63.89
2023-06-18T02:24:10.450Z,63.07
2023-06-18T02:25:10.512Z,64.18
2023-06-18T02:26:10.429Z,64.01
2023-06-18T02:27:10.476Z,62.87
2023-06-18T02:28:10.449Z,62.93
2023-06-18T02:29:10.460Z,63.22
2023-06-18T02:30:10.431Z,63.60
2023-06-18T02:31:10.411Z,63.87
2023-06-18T02:32:10.435Z,65.04
2023-06-18T02:33:10.382Z,64.00
2023-06-18T02:34:10.335Z,63.74
2023-06-18T02:35:10.303Z,63.70
2023-06-18T02:36:10.266Z,62.96
2023-06-18T02:37:10.305Z,62.66
2023-06-18T02:38:10.427Z,61.69
2023-06-18T02:39:10.507Z,63.97
2023-06-18T02:40:10.462Z,62.49
2023-06-18T02:41:10.448Z,61.52
2023-06-18T02:42:10.486Z,61.35
2023-06-18T02:43:10.539Z,61.03
2023-06-18T02:44:10.574Z,63.18
2023-06-18T02:45:10.614Z,61.37
2023-06-18T02:46:10.665Z,60.84
2023-06-18T02:47:10.690Z,61.16
2023-06-18T02:48:10.727Z,59.80
2023-06-18T02:49:10.772Z,61.86
2023-06-18T02:50:10.817Z,60.07
2023-06-18T02:51:10.845Z,61.35
2023-06-18T02:52:10.878Z,60.15
2023-06-18T02:53:10.920Z,59.15
2023-06-18T02:54:10.966Z,61.56
2023-06-18T02:55:11.005Z,59.50
2023-06-18T02:56:11.029Z,58.97
2023-06-18T02:57:11.078Z,59.27
2023-06-18T02:58:11.068Z,59.36
2023-06-18T02:59:11.042Z,59.45
2023-06-18T03:00:11.026Z,59.82
2023-06-18T03:01:11.026Z,60.24
2023-06-18T03:02:10.988Z,60.50
2023-06-18T03:03:11.007Z,60.70
2023-06-18T03:04:10.931Z,59.40
2023-06-18T03:05:11.005Z,58.96
2023-06-18T03:06:10.905Z,59.13
2023-06-18T03:07:10.922Z,59.61
2023-06-18T03:08:10.979Z,58.07
2023-06-18T03:09:11.005Z,58.58
2023-06-18T03:10:11.048Z,59.16
2023-06-18T03:11:11.090Z,58.18
2023-06-18T03:12:11.123Z,58.03
2023-06-18T03:13:11.232Z,57.35
2023-06-18T03:14:11.202Z,57.63
2023-06-18T03:15:11.248Z,57.82
2023-06-18T03:16:11.319Z,57.27
2023-06-18T03:17:11.318Z,57.29
2023-06-18T03:18:11.366Z,55.83
2023-06-18T03:19:11.339Z,55.93
2023-06-18T03:20:11.323Z,56.02
2023-06-18T03:21:11.288Z,55.96
2023-06-18T03:22:11.279Z,56.17
2023-06-18T03:23:11.253Z,56.59
2023-06-18T03:24:11.233Z,56.48
2023-06-18T03:25:11.206Z,57.24
2023-06-18T03:26:11.194Z,57.95
2023-06-18T03:27:11.162Z,57.54
2023-06-18T03:28:11.142Z,56.16
2023-06-18T03:29:11.139Z,56.11
2023-06-18T03:30:11.230Z,56.17
2023-06-18T03:31:11.216Z,55.81
2023-06-18T03:32:11.266Z,56.18
2023-06-18T03:33:11.325Z,56.43
2023-06-18T03:34:11.343Z,55.91
2023-06-18T03:35:11.410Z,54.40
2023-06-18T03:36:11.430Z,54.57
2023-06-18T03:37:11.474Z,54.81
2023-06-18T03:38:11.531Z,55.57
2023-06-18T03:39:11.553Z,54.48
2023-06-18T03:40:13.823Z,54.53
2023-06-18T03:41:11.763Z,54.74
2023-06-18T03:42:11.799Z,54.86
2023-06-18T03:43:11.845Z,55.56
2023-06-18T03:44:11.896Z,54.80
2023-06-18T03:45:11.936Z,54.47
2023-06-18T03:46:12.015Z,53.20
2023-06-18T03:47:12.016Z,53.77
2023-06-18T03:48:12.161Z,53.58
2023-06-18T03:49:12.102Z,55.29
2023-06-18T03:50:12.156Z,53.17
2023-06-18T03:51:12.202Z,54.56
2023-06-18T03:52:12.227Z,53.76
2023-06-18T03:53:12.278Z,53.23
2023-06-18T03:54:12.334Z,51.79
2023-06-18T03:55:12.364Z,51.99
2023-06-18T03:56:12.410Z,51.49
2023-06-18T03:57:12.444Z,51.75
2023-06-18T03:58:12.498Z,52.52
2023-06-18T03:59:12.572Z,51.89
2023-06-18T04:00:12.600Z,51.84
2023-06-18T04:01:12.650Z,50.94
2023-06-18T04:02:14.637Z,51.41
2023-06-18T04:03:12.711Z,51.27
2023-06-18T04:04:12.657Z,51.04
2023-06-18T04:05:12.617Z,49.84
2023-06-18T04:06:12.597Z,49.81
2023-06-18T04:07:12.573Z,49.48
2023-06-18T04:08:12.590Z,49.53
2023-06-18T04:09:12.540Z,50.16
2023-06-18T04:10:12.533Z,50.92
2023-06-18T04:11:12.514Z,50.95
2023-06-18T04:12:12.482Z,50.07
2023-06-18T04:13:12.458Z,50.99
2023-06-18T04:14:12.438Z,50.11
2023-06-18T04:15:12.428Z,50.59
2023-06-18T04:16:12.405Z,49.38
2023-06-18T04:17:12.379Z,48.99
2023-06-18T04:18:12.440Z,49.98
2023-06-18T04:19:12.398Z,50.14
2023-06-18T04:20:12.480Z,48.80
2023-06-18T04:21:12.506Z,48.64
2023-06-18T04:22:12.549Z,48.02
2023-06-18T04:23:12.593Z,48.33
2023-06-18T04:24:12.637Z,47.23
2023-06-18T04:25:12.703Z,47.70
2023-06-18T04:26:12.742Z,47.76
2023-06-18T04:27:12.785Z,47.55
2023-06-18T04:28:12.835Z,48.59
2023-06-18T04:29:12.878Z,47.69
2023-06-18T04:30:12.913Z,47.08
2023-06-18T04:31:12.974Z,47.70
2023-06-18T04:32:13.017Z,47.64
2023-06-18T04:33:12.989Z,47.65
2023-06-18T04:34:12.970Z,47.76
2023-06-18T04:35:12.955Z,47.53
2023-06-18T04:36:12.937Z,47.00
2023-06-18T04:37:12.925Z,47.38
2023-06-18T04:38:12.911Z,47.68
2023-06-18T04:39:12.891Z,47.75
2023-06-18T04:40:12.953Z,47.06
2023-06-18T04:41:12.846Z,46.94
2023-06-18T04:42:12.830Z,47.08
2023-06-18T04:43:12.823Z,47.35
2023-06-18T04:44:12.799Z,46.26
2023-06-18T04:45:12.797Z,46.44
2023-06-18T04:46:12.793Z,46.80
2023-06-18T04:47:12.890Z,45.14
2023-06-18T04:48:12.887Z,46.07
2023-06-18T04:49:12.915Z,46.47
2023-06-18T04:50:12.964Z,45.66
2023-06-18T04:51:13.010Z,45.65
2023-06-18T04:52:13.080Z,45.60
2023-06-18T04:53:13.099Z,45.30
2023-06-18T04:54:13.150Z,43.78
2023-06-18T04:55:13.204Z,44.97
2023-06-18T04:56:13.232Z,44.90
2023-06-18T04:57:13.293Z,45.42
2023-06-18T04:58:13.331Z,44.89
2023-06-18T04:59:13.373Z,45.06
2023-06-18T05:00:13.444Z,43.75
2023-06-18T05:01:13.473Z,43.84
2023-06-18T05:02:13.467Z,43.92
2023-06-18T05:03:13.512Z,44.05
2023-06-18T05:04:13.658Z,44.19
2023-06-18T05:05:13.481Z,44.07
2023-06-18T05:06:13.416Z,44.09
2023-06-18T05:07:13.385Z,44.62
2023-06-18T05:08:13.375Z,43.53
2023-06-18T05:09:13.364Z,44.35
2023-06-18T05:10:13.381Z,43.26
2023-06-18T05:11:13.416Z,43.37
2023-06-18T05:12:13.459Z,43.96
2023-06-18T05:13:13.508Z,42.90
2023-06-18T05:14:13.561Z,43.17
2023-06-18T05:15:13.537Z,43.24
2023-06-18T05:16:13.556Z,43.40
2023-06-18T05:17:13.514Z,43.59
2023-06-18T05:18:13.515Z,43.24
2023-06-18T05:19:13.466Z,43.63
2023-06-18T05:20:13.456Z,43.86
2023-06-18T05:21:13.424Z,43.69
2023-06-18T05:22:13.418Z,43.94
2023-06-18T05:23:13.456Z,44.02
2023-06-18T05:24:13.495Z,42.85
2023-06-18T05:25:13.515Z,43.60
2023-06-18T05:26:13.546Z,43.01
2023-06-18T05:27:13.581Z,42.55
2023-06-18T05:28:13.638Z,43.01
2023-06-18T05:29:13.699Z,42.34
2023-06-18T05:30:13.708Z,41.99
2023-06-18T05:31:13.761Z,40.99
2023-06-18T05:32:14.714Z,42.56
2023-06-18T05:33:13.796Z,41.99
2023-06-18T05:34:13.843Z,41.43
2023-06-18T05:35:13.884Z,41.09
2023-06-18T05:36:13.926Z,40.96
2023-06-18T05:37:13.957Z,40.99
2023-06-18T05:38:14.008Z,40.85
2023-06-18T05:39:14.051Z,40.64
2023-06-18T05:40:14.118Z,41.19
2023-06-18T05:41:14.140Z,40.57
2023-06-18T05:42:14.187Z,39.93
2023-06-18T05:43:14.227Z,40.29
2023-06-18T05:44:14.264Z,40.18
2023-06-18T05:45:14.310Z,39.82
2023-06-18T05:46:15.501Z,39.77
2023-06-18T05:47:14.390Z,39.49
2023-06-18T05:48:14.432Z,39.05
2023-06-18T05:49:14.468Z,39.12
2023-06-18T05:50:14.512Z,40.20
2023-06-18T05:51:14.562Z,39.35
2023-06-18T05:52:14.613Z,38.56
2023-06-18T05:53:14.667Z,39.25
2023-06-18T05:54:14.692Z,39.26
2023-06-18T05:55:14.741Z,38.02
2023-06-18T05:56:14.778Z,38.89
2023-06-18T05:57:14.830Z,37.91
2023-06-18T05:58:14.860Z,38.93
2023-06-18T05:59:14.911Z,37.48
2023-06-18T06:00:14.935Z,37.82
2023-06-18T06:01:15.066Z,38.02
2023-06-18T06:02:15.001Z,37.24
2023-06-18T06:03:15.042Z,36.88
2023-06-18T06:04:15.121Z,37.88
2023-06-18T06:05:15.145Z,37.26
2023-06-18T06:06:15.174Z,36.59
2023-06-18T06:07:15.221Z,36.48
2023-06-18T06:08:15.254Z,37.32
2023-06-18T06:09:15.293Z,35.84
2023-06-18T06:10:15.364Z,36.23
2023-06-18T06:11:15.404Z,36.20
2023-06-18T06:12:15.421Z,36.10
2023-06-18T06:13:15.456Z,35.94
2023-06-18T06:14:15.490Z,35.69
2023-06-18T06:15:15.529Z,36.05
2023-06-18T06:16:15.607Z,35.32
2023-06-18T06:17:15.608Z,35.08
2023-06-18T06:18:16.963Z,35.98
2023-06-18T06:19:15.694Z,34.99
2023-06-18T06:20:15.744Z,35.02
2023-06-18T06:21:15.770Z,34.89
2023-06-18T06:22:15.807Z,34.29
2023-06-18T06:23:15.831Z,35.63
2023-06-18T06:24:15.929Z,34.69
2023-06-18T06:25:15.906Z,34.42
2023-06-18T06:26:15.931Z,34.68
2023-06-18T06:27:15.973Z,34.31
2023-06-18T06:28:15.999Z,34.33
2023-06-18T06:29:16.038Z,33.69
2023-06-18T06:30:16.079Z,33.17
2023-06-18T06:31:16.108Z,32.97
2023-06-18T06:32:16.146Z,33.06
2023-06-18T06:33:16.190Z,32.25
2023-06-18T06:34:16.243Z,32.18
2023-06-18T06:35:16.253Z,32.21
2023-06-18T06:36:16.286Z,33.17
2023-06-18T06:37:16.308Z,32.24
2023-06-18T06:38:16.333Z,32.08
2023-06-18T06:39:16.374Z,31.60
2023-06-18T06:40:16.390Z,31.60
2023-06-18T06:41:16.433Z,32.24
2023-06-18T06:42:16.441Z,31.53
2023-06-18T06:43:16.469Z,31.18
2023-06-18T06:44:16.519Z,31.12
2023-06-18T06:45:16.549Z,30.82
2023-06-18T06:46:16.591Z,30.42
2023-06-18T06:47:16.579Z,29.72
2023-06-18T06:48:16.673Z,28.60
2023-06-18T06:49:16.614Z,28.67
2023-06-18T06:50:16.646Z,27.96
2023-06-18T06:51:16.664Z,28.25
2023-06-18T06:52:16.687Z,27.63
2023-06-18T06:53:16.708Z,25.84
2023-06-18T06:54:16.721Z,26.02
2023-06-18T06:55:16.746Z,26.14
2023-06-18T06:56:16.766Z,24.33
2023-06-18T06:57:16.780Z,23.35
2023-06-18T06:58:16.820Z,22.55
2023-06-18T06:59:16.824Z,21.27
2023-06-18T07:00:16.864Z,20.76
2023-06-18T07:01:16.924Z,20.01
2023-06-18T07:02:16.975Z,17.95
2023-06-18T07:03:16.993Z,17.47
2023-06-18T07:04:16.969Z,16.15
2023-06-18T07:05:16.995Z,15.46
2023-06-18T07:06:17.017Z,14.65
2023-06-18T07:07:17.075Z,13.30
2023-06-18T07:08:17.073Z,12.44
2023-06-18T07:09:17.095Z,12.01
2023-06-18T07:10:17.136Z,11.06
2023-06-18T07:11:17.159Z,10.34
2023-06-18T07:12:17.178Z,8.91
2023-06-18T07:13:17.201Z,8.52
2023-06-18T07:14:17.250Z,8.18
2023-06-18T07:15:17.329Z,7.44
2023-06-18T07:16:17.424Z,7.29
2023-06-18T07:17:17.258Z,6.70
2023-06-18T07:18:17.268Z,6.26
2023-06-18T07:19:17.222Z,5.76
2023-06-18T07:20:17.219Z,5.53
2023-06-18T07:21:17.191Z,4.89
2023-06-18T07:22:17.181Z,4.74
2023-06-18T07:23:17.157Z,4.61
2023-06-18T07:24:17.215Z,3.93
2023-06-18T07:25:17.127Z,3.48
2023-06-18T07:26:17.115Z,3.08
2023-06-18T07:27:17.083Z,2.80
2023-06-18T07:28:17.071Z,2.57
2023-06-18T07:29:17.048Z,2.42
2023-06-18T07:30:17.042Z,2.37
2023-06-18T07:31:17.208Z,2.15
2023-06-18T07:32:17.074Z,2.01
2023-06-18T07:33:17.119Z,1.92
2023-06-18T07:34:17.114Z,1.82
2023-06-18T07:35:17.151Z,1.72
2023-06-18T07:36:17.169Z,1.64
2023-06-18T07:37:17.171Z,1.67
2023-06-18T07:38:17.194Z,1.52
2023-06-18T07:39:17.208Z,1.43
2023-06-18T07:40:17.225Z,1.37
2023-06-18T07:41:17.244Z,1.29
2023-06-18T07:42:17.280Z,1.25
2023-06-18T07:43:17.285Z,1.15
2023-06-18T07:44:17.299Z,1.14
2023-06-18T07:45:17.339Z,1.07
2023-06-18T07:46:17.339Z,1.10
2023-06-18T07:47:17.309Z,1.03
2023-06-18T07:48:17.304Z,0.98
2023-06-18T07:49:17.277Z,0.95
2023-06-18T07:50:17.283Z,0.87
2023-06-18T07:51:17.240Z,0.84
2023-06-18T07:52:17.228Z,0.84
2023-06-18T07:53:17.213Z,0.81
2023-06-18T07:54:17.208Z,0.76
2023-06-18T07:55:17.217Z,0.78
2023-06-18T07:56:17.264Z,0.79
2023-06-18T07:57:17.180Z,0.70
2023-06-18T07:58:17.155Z,0.59
2023-06-18T07:59:17.147Z,0.60
2023-06-18T08:00:17.122Z,0.60
2023-06-18T08:01:17.110Z,0.56
2023-06-18T08:02:17.088Z,0.53
2023-06-18T08:03:17.123Z,0.53
2023-06-18T08:04:17.124Z,0.52
2023-06-18T08:05:17.062Z,0.50
2023-06-18T08:06:17.068Z,0.51
2023-06-18T08:07:17.084Z,0.50
2023-06-18T08:08:17.095Z,0.50
2023-06-18T08:09:17.096Z,0.50
2023-06-18T08:10:17.126Z,0.50
2023-06-18T08:11:17.112Z,0.51
2023-06-18T08:12:17.135Z,0.50
2023-06-18T08:13:17.151Z,0.53
2023-06-18T08:14:17.165Z,0.52
2023-06-18T08:15:17.177Z,0.51
2023-06-18T08:16:17.202Z,0.51
2023-06-18T08:17:17.176Z,0.51
2023-06-18T08:18:17.198Z,0.50
2023-06-18T08:19:17.147Z,0.50
2023-06-18T08:20:17.125Z,0.50
2023-06-18T08:21:17.104Z,0.50
2023-06-18T08:22:17.116Z,0.48
2023-06-18T08:23:17.059Z,0.48
2023-06-18T08:24:17.075Z,0.52
2023-06-18T08:25:17.023Z,0.57
2023-06-18T08:26:16.996Z,0.58
2023-06-18T08:27:16.987Z,0.51
2023-06-18T08:28:16.962Z,0.55
2023-06-18T08:29:16.940Z,0.51
2023-06-18T08:30:16.925Z,0.52
2023-06-18T08:31:16.913Z,0.54
2023-06-18T08:32:16.891Z,0.54
2023-06-18T08:33:16.908Z,0.51
2023-06-18T08:34:16.877Z,0.50
2023-06-18T08:35:16.863Z,0.52
2023-06-18T08:36:16.823Z,0.55
2023-06-18T08:37:16.807Z,0.52
2023-06-18T08:38:16.810Z,0.56
2023-06-18T08:39:16.780Z,0.52
2023-06-18T08:40:16.757Z,0.58
2023-06-18T08:41:16.758Z,0.62
2023-06-18T08:42:16.710Z,0.55
2023-06-18T08:43:16.675Z,0.51
2023-06-18T08:44:16.651Z,0.50
2023-06-18T08:45:16.649Z,0.57
2023-06-18T08:46:16.693Z,0.58
2023-06-18T08:47:16.630Z,0.56
2023-06-18T08:48:28.426Z,0.51
2023-06-18T08:49:16.588Z,0.51
2023-06-18T08:50:16.560Z,0.48
2023-06-18T08:51:16.556Z,0.48
2023-06-18T08:52:16.526Z,0.50
2023-06-18T08:53:16.487Z,0.47
2023-06-18T08:54:16.485Z,0.51
2023-06-18T08:55:16.462Z,0.50
2023-06-18T08:56:16.426Z,0.56
2023-06-18T08:57:16.392Z,0.60
2023-06-18T08:58:16.360Z,0.56
2023-06-18T08:59:16.332Z,0.58
2023-06-18T09:00:16.327Z,0.56
2023-06-18T09:01:16.296Z,0.55
2023-06-18T09:02:16.292Z,0.56
2023-06-18T09:03:16.346Z,0.59
2023-06-18T09:04:16.231Z,0.56
2023-06-18T09:05:16.203Z,0.58
2023-06-18T09:06:16.178Z,0.59
2023-06-18T09:07:16.133Z,0.59
2023-06-18T09:08:16.099Z,0.60
2023-06-18T09:09:16.078Z,0.61
2023-06-18T09:10:16.074Z,0.65
2023-06-18T09:11:16.039Z,0.64
2023-06-18T09:12:16.000Z,0.63
2023-06-18T09:13:15.987Z,0.62
2023-06-18T09:14:15.942Z,0.60
2023-06-18T09:15:15.942Z,0.58
2023-06-18T09:16:15.979Z,0.62
2023-06-18T09:17:15.922Z,0.63
2023-06-18T09:18:15.860Z,0.62
2023-06-18T09:19:15.850Z,0.57
2023-06-18T09:20:15.810Z,0.52
2023-06-18T09:21:15.794Z,0.57
2023-06-18T09:22:15.791Z,0.64
2023-06-18T09:23:15.745Z,0.68
2023-06-18T09:24:15.816Z,0.72
2023-06-18T09:25:15.700Z,0.72
2023-06-18T09:26:15.688Z,0.72
2023-06-18T09:27:15.658Z,0.72
2023-06-18T09:28:15.626Z,0.71
2023-06-18T09:29:15.594Z,0.71
2023-06-18T09:30:15.587Z,0.72
2023-06-18T09:31:15.556Z,0.68
2023-06-18T09:32:15.684Z,0.68
2023-06-18T09:33:15.516Z,0.66
2023-06-18T09:34:15.509Z,0.70
2023-06-18T09:35:15.496Z,0.73
2023-06-18T09:36:15.461Z,0.73
2023-06-18T09:37:15.437Z,0.73
2023-06-18T09:38:15.443Z,0.69
2023-06-18T09:39:15.398Z,0.67
2023-06-18T09:40:15.396Z,0.72
2023-06-18T09:41:15.395Z,0.73
2023-06-18T09:42:15.401Z,0.67
2023-06-18T09:43:15.307Z,0.63
2023-06-18T09:44:15.288Z,0.57
2023-06-18T09:45:15.265Z,0.51
2023-06-18T09:46:15.267Z,0.51
2023-06-18T09:47:15.209Z,0.54
2023-06-18T09:48:15.215Z,0.58
2023-06-18T09:49:15.170Z,0.55
2023-06-18T09:50:15.165Z,0.49
2023-06-18T09:51:15.119Z,0.59
2023-06-18T09:52:15.088Z,0.65
2023-06-18T09:53:15.074Z,0.69
2023-06-18T09:54:15.042Z,0.64
2023-06-18T09:55:15.028Z,0.62
2023-06-18T09:56:15.015Z,0.67
2023-06-18T09:57:15.060Z,0.66
2023-06-18T09:58:14.962Z,0.60
2023-06-18T09:59:14.946Z,0.58
2023-06-18T10:00:14.943Z,0.60
2023-06-18T10:01:14.913Z,0.61
2023-06-18T10:02:15.478Z,0.60
2023-06-18T10:03:14.892Z,0.64
2023-06-18T10:04:14.862Z,0.62
2023-06-18T10:05:14.831Z,0.63
2023-06-18T10:06:14.792Z,0.64
2023-06-18T10:07:14.772Z,0.61
2023-06-18T10:08:14.748Z,0.64
2023-06-18T10:09:14.826Z,0.62
2023-06-18T10:10:14.701Z,0.61
2023-06-18T10:11:14.672Z,0.56
2023-06-18T10:12:14.661Z,0.53
2023-06-18T10:13:14.638Z,0.50
2023-06-18T10:14:14.609Z,0.53
2023-06-18T10:15:14.599Z,0.55
2023-06-18T10:16:14.601Z,0.55
2023-06-18T10:17:14.529Z,0.63
2023-06-18T10:18:14.583Z,0.63
2023-06-18T10:19:14.478Z,0.66
2023-06-18T10:20:14.467Z,0.67
2023-06-18T10:21:14.440Z,0.73
2023-06-18T10:22:14.410Z,0.69
2023-06-18T10:23:14.385Z,0.61
2023-06-18T10:24:14.383Z,0.65
2023-06-18T10:25:14.377Z,0.64
2023-06-18T10:26:14.307Z,0.61
2023-06-18T10:27:14.336Z,0.70
2023-06-18T10:28:14.285Z,0.65
2023-06-18T10:29:14.271Z,0.62
2023-06-18T10:30:14.221Z,0.68
2023-06-18T10:31:14.195Z,0.70
2023-06-18T10:32:14.162Z,0.69
2023-06-18T10:33:14.128Z,0.73
2023-06-18T10:34:14.127Z,0.76
2023-06-18T10:35:14.185Z,0.75
2023-06-18T10:36:14.050Z,0.76
2023-06-18T10:37:14.029Z,0.78
2023-06-18T10:38:14.025Z,0.76
2023-06-18T10:39:24.515Z,0.75
2023-06-18T10:40:14.963Z,0.75
2023-06-18T10:41:13.925Z,0.76
2023-06-18T10:42:13.903Z,0.76
2023-06-18T10:43:13.870Z,0.76
2023-06-18T10:44:13.856Z,0.75
2023-06-18T10:45:13.962Z,0.72
2023-06-18T10:46:13.887Z,0.76
2023-06-18T10:47:13.764Z,0.76
2023-06-18T10:48:13.742Z,0.76
2023-06-18T10:49:13.711Z,0.73
2023-06-18T10:50:13.742Z,0.66
2023-06-18T10:51:13.677Z,0.65
2023-06-18T10:52:13.672Z,0.69
2023-06-18T10:53:13.615Z,0.67
2023-06-18T10:54:13.607Z,0.67
2023-06-18T10:55:13.636Z,0.62
2023-06-18T10:56:13.545Z,0.62
2023-06-18T10:57:13.502Z,0.57
2023-06-18T10:58:13.470Z,0.54
2023-06-18T10:59:13.470Z,0.50
2023-06-18T11:00:13.418Z,0.52
2023-06-18T11:01:13.419Z,0.50
2023-06-18T11:02:13.468Z,0.51
2023-06-18T11:03:13.632Z,0.50
2023-06-18T11:04:13.424Z,0.50
2023-06-18T11:05:13.508Z,0.51
2023-06-18T11:06:13.481Z,0.53
2023-06-18T11:07:13.536Z,0.60
2023-06-18T11:08:13.568Z,0.67
2023-06-18T11:09:13.615Z,0.71
2023-06-18T11:10:13.652Z,0.69
2023-06-18T11:11:13.680Z,0.65
2023-06-18T11:12:13.701Z,0.69
2023-06-18T11:13:13.752Z,0.68
2023-06-18T11:14:13.757Z,0.70
2023-06-18T11:15:13.756Z,0.71
2023-06-18T11:16:13.786Z,0.72
2023-06-18T11:17:13.776Z,0.77
2023-06-18T11:18:13.784Z,0.76
2023-06-18T11:19:13.841Z,0.72
2023-06-18T11:20:13.852Z,0.71
2023-06-18T11:21:13.899Z,0.68
2023-06-18T11:22:13.912Z,0.65
2023-06-18T11:23:13.958Z,0.64
2023-06-18T11:24:14.043Z,0.64
2023-06-18T11:25:14.042Z,0.60
2023-06-18T11:26:14.087Z,0.60
2023-06-18T11:27:14.138Z,0.61
2023-06-18T11:28:14.124Z,0.57
2023-06-18T11:29:14.151Z,0.56
2023-06-18T11:30:14.187Z,0.53
2023-06-18T11:31:14.268Z,0.53
2023-06-18T11:32:14.221Z,0.55
2023-06-18T11:33:14.239Z,0.56
2023-06-18T11:34:14.181Z,0.58
2023-06-18T11:35:14.220Z,0.58
2023-06-18T11:36:16.207Z,0.59
2023-06-18T11:37:14.224Z,0.60
2023-06-18T11:38:14.192Z,0.62
2023-06-18T11:39:14.149Z,0.60
2023-06-18T11:40:14.116Z,0.61
2023-06-18T11:41:14.107Z,0.58
2023-06-18T11:42:16.444Z,0.62
2023-06-18T11:43:14.051Z,0.62
2023-06-18T11:44:14.018Z,0.61
2023-06-18T11:45:14.009Z,0.62
2023-06-18T11:46:14.011Z,0.62
2023-06-18T11:47:13.956Z,0.64
2023-06-18T11:48:13.928Z,0.64
2023-06-18T11:49:13.916Z,0.62
2023-06-18T11:50:13.884Z,0.60
2023-06-18T11:51:13.864Z,0.57
2023-06-18T11:52:13.827Z,0.57
2023-06-18T11:53:13.843Z,0.58
2023-06-18T11:54:13.777Z,0.59
2023-06-18T11:55:13.775Z,0.60
2023-06-18T11:56:13.729Z,0.56
2023-06-18T11:57:13.704Z,0.57
2023-06-18T11:58:13.687Z,0.58
2023-06-18T11:59:13.662Z,0.58
2023-06-18T12:00:13.638Z,0.56
2023-06-18T12:01:13.635Z,0.52
2023-06-18T12:02:13.680Z,0.50
2023-06-18T12:03:13.673Z,0.50
2023-06-18T12:04:13.662Z,0.51
2023-06-18T12:05:13.562Z,0.52
2023-06-18T12:06:13.529Z,0.54
2023-06-18T12:07:13.491Z,0.54
2023-06-18T12:08:13.465Z,0.54
2023-06-18T12:09:13.441Z,0.55
2023-06-18T12:10:13.424Z,0.55
2023-06-18T12:11:13.388Z,0.54
2023-06-18T12:12:13.362Z,0.52
2023-06-18T12:13:13.333Z,0.54
2023-06-18T12:14:13.300Z,0.53
2023-06-18T12:15:13.315Z,0.54
2023-06-18T12:16:13.331Z,0.56
2023-06-18T12:17:13.222Z,0.54
2023-06-18T12:18:13.186Z,0.53
2023-06-18T12:19:13.165Z,0.52
2023-06-18T12:20:13.115Z,0.53
2023-06-18T12:21:13.099Z,0.52
2023-06-18T12:22:13.048Z,0.53
2023-06-18T12:23:13.032Z,0.52
2023-06-18T12:24:13.124Z,0.53
2023-06-18T12:25:13.110Z,0.54
2023-06-18T12:26:13.005Z,0.54
2023-06-18T12:27:12.927Z,0.53
2023-06-18T12:28:12.906Z,0.53
2023-06-18T12:29:12.876Z,0.53
2023-06-18T12:30:12.843Z,0.53
2023-06-18T12:31:12.844Z,0.52
2023-06-18T12:32:12.839Z,0.51
2023-06-18T12:33:12.821Z,0.53
2023-06-18T12:34:12.834Z,0.52
2023-06-18T12:35:12.714Z,0.51
2023-06-18T12:36:12.705Z,0.50
2023-06-18T12:37:12.711Z,0.50
2023-06-18T12:38:12.844Z,0.52
2023-06-18T12:39:12.746Z,0.50
2023-06-18T12:40:12.793Z,0.51
2023-06-18T12:41:12.862Z,0.50
2023-06-18T12:42:12.784Z,0.50
2023-06-18T12:43:12.815Z,0.50
2023-06-18T12:44:12.857Z,0.51
2023-06-18T12:45:12.830Z,0.50
2023-06-18T12:46:12.863Z,0.50
2023-06-18T12:47:12.893Z,0.50
2023-06-18T12:48:12.818Z,0.50
2023-06-18T12:49:12.717Z,0.49
2023-06-18T12:50:12.683Z,0.51
2023-06-18T12:51:12.649Z,0.51
2023-06-18T12:52:12.625Z,0.52
2023-06-18T12:53:12.589Z,0.53
2023-06-18T12:54:12.555Z,0.52
2023-06-18T12:55:12.524Z,0.52
2023-06-18T12:56:12.546Z,0.53
2023-06-18T12:57:12.476Z,0.53
2023-06-18T12:58:12.493Z,0.52
2023-06-18T12:59:15.060Z,0.52
2023-06-18T13:00:12.668Z,0.53
2023-06-18T13:01:12.732Z,0.53
2023-06-18T13:02:12.733Z,0.54
2023-06-18T13:03:12.848Z,0.55
2023-06-18T13:04:12.722Z,0.55